sensor_id;sensor_type;location;lat;lon;timestamp;P1;durP1;ratioP1;P2;durP2;ratioP2
23252;SDS011;11795;47.054;15.408;2022-09-09T00:00:00;0.8;;;0.7;;
23252;SDS011;11795;47.054;15.408;2022-09-09T00:02:01;0.8;;;0.7;;
23252;SDS011;11795;47.054;15.408;2022-09-09T00:04:02;2.6;;;0.9;;
23252;SDS011;11795;47.054;15.408;2022-09-09T00:06:02;2.6;;;0.9;;
23252;SDS011;11795;47.054;15.408;2022-09-09T00:08:01;2.4;;;0.8;;
23252;SDS011;11795;47.054;15.408;2022-09-09T00:10:03;2.4;;;0.8;;
23252;SDS011;11795;47.054;15.408;2022-09-09T00:12:02;2.4;;;0.8;;
23252;SDS011;11795;47.054;15.408;2022-09-09T00:14:00;1.2;;;0.8;;
23252;SDS011;11795;47.054;15.408;2022-09-09T00:16:02;1.2;;;0.8;;
23252;SDS011;11795;47.054;15.408;2022-09-09T00:18:01;1.1;;;0.7;;
23252;SDS011;11795;47.054;15.408;2022-09-09T00:20:01;1.1;;;0.7;;
23252;SDS011;11795;47.054;15.408;2022-09-09T00:22:05;1.1;;;0.7;;
23252;SDS011;11795;47.054;15.408;2022-09-09T00:24:00;1.5;;;0.8;;
23252;SDS011;11795;47.054;15.408;2022-09-09T00:26:02;1.5;;;0.8;;
23252;SDS011;11795;47.054;15.408;2022-09-09T00:28:00;3.1;;;0.7;;
23252;SDS011;11795;47.054;15.408;2022-09-09T00:30:01;3.1;;;0.7;;
23252;SDS011;11795;47.054;15.408;2022-09-09T00:32:04;3.1;;;0.7;;
23252;SDS011;11795;47.054;15.408;2022-09-09T00:34:03;1.4;;;0.9;;
23252;SDS011;11795;47.054;15.408;2022-09-09T00:36:00;1.4;;;0.9;;
23252;SDS011;11795;47.054;15.408;2022-09-09T00:38:00;1.9;;;0.7;;
23252;SDS011;11795;47.054;15.408;2022-09-09T00:40:02;1.9;;;0.7;;
23252;SDS011;11795;47.054;15.408;2022-09-09T00:42:04;1.9;;;0.7;;
23252;SDS011;11795;47.054;15.408;2022-09-09T00:44:00;2.2;;;0.9;;
23252;SDS011;11795;47.054;15.408;2022-09-09T00:46:05;2.2;;;0.9;;
23252;SDS011;11795;47.054;15.408;2022-09-09T00:48:00;0.8;;;0.7;;
23252;SDS011;11795;47.054;15.408;2022-09-09T00:50:02;0.8;;;0.7;;
23252;SDS011;11795;47.054;15.408;2022-09-09T00:52:03;0.8;;;0.7;;
23252;SDS011;11795;47.054;15.408;2022-09-09T00:54:07;1.4;;;0.7;;
23252;SDS011;11795;47.054;15.408;2022-09-09T00:56:02;1.4;;;0.7;;
23252;SDS011;11795;47.054;15.408;2022-09-09T00:58:00;0.6;;;0.6;;
23252;SDS011;11795;47.054;15.408;2022-09-09T01:02:02;0.6;;;0.6;;
23252;SDS011;11795;47.054;15.408;2022-09-09T01:04:00;1.3;;;0.7;;
23252;SDS011;11795;47.054;15.408;2022-09-09T01:06:01;1.3;;;0.7;;
23252;SDS011;11795;47.054;15.408;2022-09-09T01:08:01;2.3;;;0.5;;
23252;SDS011;11795;47.054;15.408;2022-09-09T01:10:00;2.3;;;0.5;;
23252;SDS011;11795;47.054;15.408;2022-09-09T01:12:01;2.3;;;0.5;;
23252;SDS011;11795;47.054;15.408;2022-09-09T01:14:01;1.8;;;0.6;;
23252;SDS011;11795;47.054;15.408;2022-09-09T01:16:00;1.8;;;0.6;;
23252;SDS011;11795;47.054;15.408;2022-09-09T01:18:02;1.7;;;0.6;;
23252;SDS011;11795;47.054;15.408;2022-09-09T01:20:02;1.7;;;0.6;;
23252;SDS011;11795;47.054;15.408;2022-09-09T01:22:01;1.7;;;0.6;;
23252;SDS011;11795;47.054;15.408;2022-09-09T01:24:07;1.4;;;0.7;;
23252;SDS011;11795;47.054;15.408;2022-09-09T01:28:00;0.8;;;0.6;;
23252;SDS011;11795;47.054;15.408;2022-09-09T01:30:00;0.8;;;0.6;;
23252;SDS011;11795;47.054;15.408;2022-09-09T01:32:00;0.8;;;0.6;;
23252;SDS011;11795;47.054;15.408;2022-09-09T01:34:00;2.1;;;0.8;;
23252;SDS011;11795;47.054;15.408;2022-09-09T01:36:02;2.1;;;0.8;;
23252;SDS011;11795;47.054;15.408;2022-09-09T01:38:00;1.4;;;0.8;;
23252;SDS011;11795;47.054;15.408;2022-09-09T01:40:00;1.4;;;0.8;;
23252;SDS011;11795;47.054;15.408;2022-09-09T01:42:00;1.4;;;0.8;;
23252;SDS011;11795;47.054;15.408;2022-09-09T01:44:00;1.5;;;0.6;;
23252;SDS011;11795;47.054;15.408;2022-09-09T01:46:00;1.5;;;0.6;;
23252;SDS011;11795;47.054;15.408;2022-09-09T01:48:00;1.1;;;0.8;;
23252;SDS011;11795;47.054;15.408;2022-09-09T01:50:00;1.1;;;0.8;;
23252;SDS011;11795;47.054;15.408;2022-09-09T01:52:00;1.1;;;0.8;;
23252;SDS011;11795;47.054;15.408;2022-09-09T01:54:00;1.3;;;0.7;;
23252;SDS011;11795;47.054;15.408;2022-09-09T01:56:02;1.3;;;0.7;;
23252;SDS011;11795;47.054;15.408;2022-09-09T01:58:04;1.8;;;0.8;;
23252;SDS011;11795;47.054;15.408;2022-09-09T02:00:02;1.8;;;0.8;;
23252;SDS011;11795;47.054;15.408;2022-09-09T02:02:04;1.8;;;0.8;;
23252;SDS011;11795;47.054;15.408;2022-09-09T02:04:00;1.4;;;0.8;;
23252;SDS011;11795;47.054;15.408;2022-09-09T02:06:01;1.4;;;0.8;;
23252;SDS011;11795;47.054;15.408;2022-09-09T02:08:00;1.3;;;0.9;;
23252;SDS011;11795;47.054;15.408;2022-09-09T02:10:01;1.3;;;0.9;;
23252;SDS011;11795;47.054;15.408;2022-09-09T02:12:01;1.3;;;0.9;;
23252;SDS011;11795;47.054;15.408;2022-09-09T02:14:01;1.4;;;0.9;;
23252;SDS011;11795;47.054;15.408;2022-09-09T02:16:00;1.4;;;0.9;;
23252;SDS011;11795;47.054;15.408;2022-09-09T02:18:00;1.3;;;0.9;;
23252;SDS011;11795;47.054;15.408;2022-09-09T02:20:02;1.3;;;0.9;;
23252;SDS011;11795;47.054;15.408;2022-09-09T02:22:00;1.3;;;0.9;;
23252;SDS011;11795;47.054;15.408;2022-09-09T02:24:02;1.1;;;1.0;;
23252;SDS011;11795;47.054;15.408;2022-09-09T02:26:00;1.1;;;1.0;;
23252;SDS011;11795;47.054;15.408;2022-09-09T02:28:00;2.7;;;1.2;;
23252;SDS011;11795;47.054;15.408;2022-09-09T02:30:01;2.7;;;1.2;;
23252;SDS011;11795;47.054;15.408;2022-09-09T02:32:03;2.7;;;1.2;;
23252;SDS011;11795;47.054;15.408;2022-09-09T02:34:00;1.5;;;0.9;;
23252;SDS011;11795;47.054;15.408;2022-09-09T02:36:03;1.5;;;0.9;;
23252;SDS011;11795;47.054;15.408;2022-09-09T02:38:01;1.4;;;0.8;;
23252;SDS011;11795;47.054;15.408;2022-09-09T02:40:00;1.4;;;0.8;;
23252;SDS011;11795;47.054;15.408;2022-09-09T02:42:00;1.4;;;0.8;;
23252;SDS011;11795;47.054;15.408;2022-09-09T02:44:00;1.6;;;0.8;;
23252;SDS011;11795;47.054;15.408;2022-09-09T02:46:02;1.6;;;0.8;;
23252;SDS011;11795;47.054;15.408;2022-09-09T02:48:02;1.9;;;0.9;;
23252;SDS011;11795;47.054;15.408;2022-09-09T02:50:05;1.9;;;0.9;;
23252;SDS011;11795;47.054;15.408;2022-09-09T02:52:01;1.9;;;0.9;;
23252;SDS011;11795;47.054;15.408;2022-09-09T02:54:03;2.2;;;1.0;;
23252;SDS011;11795;47.054;15.408;2022-09-09T02:56:01;2.2;;;1.0;;
23252;SDS011;11795;47.054;15.408;2022-09-09T02:58:00;2.2;;;1.0;;
23252;SDS011;11795;47.054;15.408;2022-09-09T03:00:02;2.3;;;1.1;;
23252;SDS011;11795;47.054;15.408;2022-09-09T03:02:01;2.3;;;1.1;;
23252;SDS011;11795;47.054;15.408;2022-09-09T03:04:00;1.9;;;1.1;;
23252;SDS011;11795;47.054;15.408;2022-09-09T03:06:00;1.9;;;1.1;;
23252;SDS011;11795;47.054;15.408;2022-09-09T03:08:00;1.9;;;1.1;;
23252;SDS011;11795;47.054;15.408;2022-09-09T03:10:00;3.5;;;1.2;;
23252;SDS011;11795;47.054;15.408;2022-09-09T03:12:00;3.5;;;1.2;;
23252;SDS011;11795;47.054;15.408;2022-09-09T03:14:00;1.8;;;1.0;;
23252;SDS011;11795;47.054;15.408;2022-09-09T03:16:00;1.8;;;1.0;;
23252;SDS011;11795;47.054;15.408;2022-09-09T03:18:00;1.8;;;1.0;;
23252;SDS011;11795;47.054;15.408;2022-09-09T03:20:01;1.8;;;1.1;;
23252;SDS011;11795;47.054;15.408;2022-09-09T03:22:00;1.8;;;1.1;;
23252;SDS011;11795;47.054;15.408;2022-09-09T03:24:00;1.9;;;1.2;;
23252;SDS011;11795;47.054;15.408;2022-09-09T03:26:00;1.9;;;1.2;;
23252;SDS011;11795;47.054;15.408;2022-09-09T03:28:00;1.9;;;1.2;;
23252;SDS011;11795;47.054;15.408;2022-09-09T03:30:04;2.4;;;1.4;;
23252;SDS011;11795;47.054;15.408;2022-09-09T03:32:00;2.4;;;1.4;;
23252;SDS011;11795;47.054;15.408;2022-09-09T03:34:00;2.5;;;1.4;;
23252;SDS011;11795;47.054;15.408;2022-09-09T03:36:00;2.5;;;1.4;;
23252;SDS011;11795;47.054;15.408;2022-09-09T03:38:00;2.5;;;1.4;;
23252;SDS011;11795;47.054;15.408;2022-09-09T03:40:00;1.8;;;1.3;;
23252;SDS011;11795;47.054;15.408;2022-09-09T03:42:03;1.8;;;1.3;;
23252;SDS011;11795;47.054;15.408;2022-09-09T03:44:00;2.3;;;1.0;;
23252;SDS011;11795;47.054;15.408;2022-09-09T03:46:00;2.3;;;1.0;;
23252;SDS011;11795;47.054;15.408;2022-09-09T03:48:00;2.3;;;1.0;;
23252;SDS011;11795;47.054;15.408;2022-09-09T03:50:00;1.8;;;1.0;;
23252;SDS011;11795;47.054;15.408;2022-09-09T03:52:01;1.8;;;1.0;;
23252;SDS011;11795;47.054;15.408;2022-09-09T03:54:00;2.1;;;1.1;;
23252;SDS011;11795;47.054;15.408;2022-09-09T03:56:00;2.1;;;1.1;;
23252;SDS011;11795;47.054;15.408;2022-09-09T03:58:00;2.1;;;1.1;;
23252;SDS011;11795;47.054;15.408;2022-09-09T04:00:02;3.5;;;1.3;;
23252;SDS011;11795;47.054;15.408;2022-09-09T04:02:00;3.5;;;1.3;;
23252;SDS011;11795;47.054;15.408;2022-09-09T04:04:02;2.9;;;1.3;;
23252;SDS011;11795;47.054;15.408;2022-09-09T04:06:01;2.9;;;1.3;;
23252;SDS011;11795;47.054;15.408;2022-09-09T04:08:00;2.9;;;1.3;;
23252;SDS011;11795;47.054;15.408;2022-09-09T04:10:00;3.9;;;1.6;;
23252;SDS011;11795;47.054;15.408;2022-09-09T04:12:00;3.9;;;1.6;;
23252;SDS011;11795;47.054;15.408;2022-09-09T04:14:00;3.0;;;1.3;;
23252;SDS011;11795;47.054;15.408;2022-09-09T04:16:01;3.0;;;1.3;;
23252;SDS011;11795;47.054;15.408;2022-09-09T04:18:00;3.0;;;1.3;;
23252;SDS011;11795;47.054;15.408;2022-09-09T04:20:01;2.4;;;1.4;;
23252;SDS011;11795;47.054;15.408;2022-09-09T04:22:00;2.4;;;1.4;;
23252;SDS011;11795;47.054;15.408;2022-09-09T04:24:00;3.2;;;1.7;;
23252;SDS011;11795;47.054;15.408;2022-09-09T04:26:01;3.2;;;1.7;;
23252;SDS011;11795;47.054;15.408;2022-09-09T04:28:00;3.2;;;1.7;;
23252;SDS011;11795;47.054;15.408;2022-09-09T04:30:00;2.2;;;1.6;;
23252;SDS011;11795;47.054;15.408;2022-09-09T04:32:00;2.2;;;1.6;;
23252;SDS011;11795;47.054;15.408;2022-09-09T04:34:04;5.8;;;2.2;;
23252;SDS011;11795;47.054;15.408;2022-09-09T04:36:00;5.8;;;2.2;;
23252;SDS011;11795;47.054;15.408;2022-09-09T04:38:01;5.8;;;2.2;;
23252;SDS011;11795;47.054;15.408;2022-09-09T04:40:02;4.5;;;1.7;;
23252;SDS011;11795;47.054;15.408;2022-09-09T04:42:00;4.5;;;1.7;;
23252;SDS011;11795;47.054;15.408;2022-09-09T04:44:01;2.8;;;1.5;;
23252;SDS011;11795;47.054;15.408;2022-09-09T04:46:00;2.8;;;1.5;;
23252;SDS011;11795;47.054;15.408;2022-09-09T04:48:00;2.8;;;1.5;;
23252;SDS011;11795;47.054;15.408;2022-09-09T04:50:00;4.8;;;1.9;;
23252;SDS011;11795;47.054;15.408;2022-09-09T04:52:00;4.8;;;1.9;;
23252;SDS011;11795;47.054;15.408;2022-09-09T04:54:00;3.5;;;1.6;;
23252;SDS011;11795;47.054;15.408;2022-09-09T04:56:01;3.5;;;1.6;;
23252;SDS011;11795;47.054;15.408;2022-09-09T04:58:02;3.5;;;1.6;;
23252;SDS011;11795;47.054;15.408;2022-09-09T05:00:00;3.1;;;1.6;;
23252;SDS011;11795;47.054;15.408;2022-09-09T05:02:00;3.1;;;1.6;;
23252;SDS011;11795;47.054;15.408;2022-09-09T05:04:00;4.4;;;1.7;;
23252;SDS011;11795;47.054;15.408;2022-09-09T05:06:02;4.4;;;1.7;;
23252;SDS011;11795;47.054;15.408;2022-09-09T05:08:00;4.4;;;1.7;;
23252;SDS011;11795;47.054;15.408;2022-09-09T05:10:00;3.2;;;2.1;;
23252;SDS011;11795;47.054;15.408;2022-09-09T05:12:01;3.2;;;2.1;;
23252;SDS011;11795;47.054;15.408;2022-09-09T05:14:01;2.4;;;1.7;;
23252;SDS011;11795;47.054;15.408;2022-09-09T05:16:00;2.4;;;1.7;;
23252;SDS011;11795;47.054;15.408;2022-09-09T05:18:00;2.4;;;1.7;;
23252;SDS011;11795;47.054;15.408;2022-09-09T05:20:00;3.5;;;2.1;;
23252;SDS011;11795;47.054;15.408;2022-09-09T05:22:01;3.5;;;2.1;;
23252;SDS011;11795;47.054;15.408;2022-09-09T05:24:00;2.8;;;1.7;;
23252;SDS011;11795;47.054;15.408;2022-09-09T05:26:00;2.8;;;1.7;;
23252;SDS011;11795;47.054;15.408;2022-09-09T05:28:00;2.8;;;1.7;;
23252;SDS011;11795;47.054;15.408;2022-09-09T05:30:00;4.2;;;1.9;;
23252;SDS011;11795;47.054;15.408;2022-09-09T05:32:00;4.2;;;1.9;;
23252;SDS011;11795;47.054;15.408;2022-09-09T05:34:00;3.7;;;2.2;;
23252;SDS011;11795;47.054;15.408;2022-09-09T05:36:02;3.7;;;2.2;;
23252;SDS011;11795;47.054;15.408;2022-09-09T05:38:00;3.7;;;2.2;;
23252;SDS011;11795;47.054;15.408;2022-09-09T05:40:01;3.2;;;1.9;;
23252;SDS011;11795;47.054;15.408;2022-09-09T05:42:01;3.2;;;1.9;;
23252;SDS011;11795;47.054;15.408;2022-09-09T05:44:01;3.4;;;2.1;;
23252;SDS011;11795;47.054;15.408;2022-09-09T05:46:02;3.4;;;2.1;;
23252;SDS011;11795;47.054;15.408;2022-09-09T05:48:01;3.4;;;2.1;;
23252;SDS011;11795;47.054;15.408;2022-09-09T05:50:00;4.0;;;2.0;;
23252;SDS011;11795;47.054;15.408;2022-09-09T05:52:00;4.0;;;2.0;;
23252;SDS011;11795;47.054;15.408;2022-09-09T05:54:00;3.2;;;1.8;;
23252;SDS011;11795;47.054;15.408;2022-09-09T05:56:00;3.2;;;1.8;;
23252;SDS011;11795;47.054;15.408;2022-09-09T05:58:01;3.2;;;1.8;;
23252;SDS011;11795;47.054;15.408;2022-09-09T06:00:00;3.5;;;1.9;;
23252;SDS011;11795;47.054;15.408;2022-09-09T06:02:00;3.5;;;1.9;;
23252;SDS011;11795;47.054;15.408;2022-09-09T06:04:00;3.0;;;1.7;;
23252;SDS011;11795;47.054;15.408;2022-09-09T06:06:00;3.0;;;1.7;;
23252;SDS011;11795;47.054;15.408;2022-09-09T06:08:00;3.0;;;1.7;;
23252;SDS011;11795;47.054;15.408;2022-09-09T06:10:00;2.6;;;1.5;;
23252;SDS011;11795;47.054;15.408;2022-09-09T06:12:00;2.6;;;1.5;;
23252;SDS011;11795;47.054;15.408;2022-09-09T06:14:00;4.1;;;1.7;;
23252;SDS011;11795;47.054;15.408;2022-09-09T06:16:00;4.1;;;1.7;;
23252;SDS011;11795;47.054;15.408;2022-09-09T06:18:00;4.1;;;1.7;;
23252;SDS011;11795;47.054;15.408;2022-09-09T06:20:00;3.3;;;2.0;;
23252;SDS011;11795;47.054;15.408;2022-09-09T06:22:00;3.3;;;2.0;;
23252;SDS011;11795;47.054;15.408;2022-09-09T06:24:00;3.7;;;1.8;;
23252;SDS011;11795;47.054;15.408;2022-09-09T06:26:01;3.7;;;1.8;;
23252;SDS011;11795;47.054;15.408;2022-09-09T06:28:00;3.7;;;1.8;;
23252;SDS011;11795;47.054;15.408;2022-09-09T06:30:00;4.9;;;2.3;;
23252;SDS011;11795;47.054;15.408;2022-09-09T06:32:00;4.9;;;2.3;;
23252;SDS011;11795;47.054;15.408;2022-09-09T06:34:01;3.3;;;2.3;;
23252;SDS011;11795;47.054;15.408;2022-09-09T06:36:00;3.3;;;2.3;;
23252;SDS011;11795;47.054;15.408;2022-09-09T06:38:00;3.3;;;2.3;;
23252;SDS011;11795;47.054;15.408;2022-09-09T06:40:00;8.5;;;3.3;;
23252;SDS011;11795;47.054;15.408;2022-09-09T06:42:00;8.5;;;3.3;;
23252;SDS011;11795;47.054;15.408;2022-09-09T06:44:01;6.3;;;2.3;;
23252;SDS011;11795;47.054;15.408;2022-09-09T06:46:01;6.3;;;2.3;;
23252;SDS011;11795;47.054;15.408;2022-09-09T06:48:00;6.3;;;2.3;;
23252;SDS011;11795;47.054;15.408;2022-09-09T06:50:00;7.9;;;2.9;;
23252;SDS011;11795;47.054;15.408;2022-09-09T06:52:00;7.9;;;2.9;;
23252;SDS011;11795;47.054;15.408;2022-09-09T06:54:01;6.6;;;2.8;;
23252;SDS011;11795;47.054;15.408;2022-09-09T06:56:01;6.6;;;2.8;;
23252;SDS011;11795;47.054;15.408;2022-09-09T06:58:00;6.6;;;2.8;;
23252;SDS011;11795;47.054;15.408;2022-09-09T07:00:01;6.5;;;2.5;;
23252;SDS011;11795;47.054;15.408;2022-09-09T07:02:01;6.5;;;2.5;;
23252;SDS011;11795;47.054;15.408;2022-09-09T08:14:00;3.8;;;2.1;;
23252;SDS011;11795;47.054;15.408;2022-09-09T08:16:04;3.2;;;2.1;;
23252;SDS011;11795;47.054;15.408;2022-09-09T08:18:00;3.2;;;2.1;;
23252;SDS011;11795;47.054;15.408;2022-09-09T08:20:04;4.1;;;2.0;;
23252;SDS011;11795;47.054;15.408;2022-09-09T08:22:02;4.1;;;2.0;;
23252;SDS011;11795;47.054;15.408;2022-09-09T08:24:00;4.1;;;2.0;;
23252;SDS011;11795;47.054;15.408;2022-09-09T08:26:04;6.1;;;2.2;;
23252;SDS011;11795;47.054;15.408;2022-09-09T08:28:00;6.1;;;2.2;;
23252;SDS011;11795;47.054;15.408;2022-09-09T08:30:00;2.7;;;1.9;;
23252;SDS011;11795;47.054;15.408;2022-09-09T08:32:02;2.7;;;1.9;;
23252;SDS011;11795;47.054;15.408;2022-09-09T08:34:00;2.7;;;1.9;;
23252;SDS011;11795;47.054;15.408;2022-09-09T08:36:00;2.5;;;1.9;;
23252;SDS011;11795;47.054;15.408;2022-09-09T08:38:00;2.5;;;1.9;;
23252;SDS011;11795;47.054;15.408;2022-09-09T08:40:00;3.8;;;2.3;;
23252;SDS011;11795;47.054;15.408;2022-09-09T08:42:05;3.8;;;2.3;;
23252;SDS011;11795;47.054;15.408;2022-09-09T08:44:02;3.8;;;2.3;;
23252;SDS011;11795;47.054;15.408;2022-09-09T08:46:01;3.4;;;2.3;;
23252;SDS011;11795;47.054;15.408;2022-09-09T08:48:03;3.4;;;2.3;;
23252;SDS011;11795;47.054;15.408;2022-09-09T08:50:02;3.5;;;2.3;;
23252;SDS011;11795;47.054;15.408;2022-09-09T08:52:00;3.5;;;2.3;;
23252;SDS011;11795;47.054;15.408;2022-09-09T08:54:01;3.5;;;2.3;;
23252;SDS011;11795;47.054;15.408;2022-09-09T08:56:01;6.7;;;2.9;;
23252;SDS011;11795;47.054;15.408;2022-09-09T08:58:02;6.7;;;2.9;;
23252;SDS011;11795;47.054;15.408;2022-09-09T09:00:00;4.3;;;3.2;;
23252;SDS011;11795;47.054;15.408;2022-09-09T09:02:03;4.3;;;3.2;;
23252;SDS011;11795;47.054;15.408;2022-09-09T09:04:02;4.3;;;3.2;;
23252;SDS011;11795;47.054;15.408;2022-09-09T09:06:01;5.6;;;3.2;;
23252;SDS011;11795;47.054;15.408;2022-09-09T09:08:03;5.6;;;3.2;;
23252;SDS011;11795;47.054;15.408;2022-09-09T09:10:02;5.4;;;3.0;;
23252;SDS011;11795;47.054;15.408;2022-09-09T09:12:01;5.4;;;3.0;;
23252;SDS011;11795;47.054;15.408;2022-09-09T09:14:01;5.4;;;3.0;;
23252;SDS011;11795;47.054;15.408;2022-09-09T09:16:02;6.6;;;2.9;;
23252;SDS011;11795;47.054;15.408;2022-09-09T09:18:00;6.6;;;2.9;;
23252;SDS011;11795;47.054;15.408;2022-09-09T09:20:00;3.2;;;2.4;;
23252;SDS011;11795;47.054;15.408;2022-09-09T09:22:01;3.2;;;2.4;;
23252;SDS011;11795;47.054;15.408;2022-09-09T09:24:00;3.2;;;2.4;;
23252;SDS011;11795;47.054;15.408;2022-09-09T09:26:00;3.4;;;2.0;;
23252;SDS011;11795;47.054;15.408;2022-09-09T09:28:01;3.4;;;2.0;;
23252;SDS011;11795;47.054;15.408;2022-09-09T09:30:01;2.9;;;2.0;;
23252;SDS011;11795;47.054;15.408;2022-09-09T09:32:01;2.9;;;2.0;;
23252;SDS011;11795;47.054;15.408;2022-09-09T09:34:00;2.9;;;2.0;;
23252;SDS011;11795;47.054;15.408;2022-09-09T09:36:00;2.5;;;1.6;;
23252;SDS011;11795;47.054;15.408;2022-09-09T09:38:00;2.5;;;1.6;;
23252;SDS011;11795;47.054;15.408;2022-09-09T09:40:07;2.6;;;1.6;;
23252;SDS011;11795;47.054;15.408;2022-09-09T09:42:07;2.6;;;1.6;;
23252;SDS011;11795;47.054;15.408;2022-09-09T09:44:01;2.6;;;1.6;;
23252;SDS011;11795;47.054;15.408;2022-09-09T09:46:00;3.3;;;1.6;;
23252;SDS011;11795;47.054;15.408;2022-09-09T09:48:00;3.3;;;1.6;;
23252;SDS011;11795;47.054;15.408;2022-09-09T09:50:02;2.5;;;1.7;;
23252;SDS011;11795;47.054;15.408;2022-09-09T09:52:00;2.5;;;1.7;;
23252;SDS011;11795;47.054;15.408;2022-09-09T09:54:03;2.5;;;1.7;;
23252;SDS011;11795;47.054;15.408;2022-09-09T09:56:00;2.2;;;1.3;;
23252;SDS011;11795;47.054;15.408;2022-09-09T09:58:01;2.2;;;1.3;;
23252;SDS011;11795;47.054;15.408;2022-09-09T10:00:03;2.1;;;1.3;;
23252;SDS011;11795;47.054;15.408;2022-09-09T10:04:01;2.1;;;1.3;;
23252;SDS011;11795;47.054;15.408;2022-09-09T10:06:00;1.9;;;1.2;;
23252;SDS011;11795;47.054;15.408;2022-09-09T10:08:01;1.9;;;1.2;;
23252;SDS011;11795;47.054;15.408;2022-09-09T10:10:01;3.2;;;1.6;;
23252;SDS011;11795;47.054;15.408;2022-09-09T10:12:01;3.2;;;1.6;;
23252;SDS011;11795;47.054;15.408;2022-09-09T10:14:04;3.2;;;1.6;;
23252;SDS011;11795;47.054;15.408;2022-09-09T10:16:04;2.5;;;1.3;;
23252;SDS011;11795;47.054;15.408;2022-09-09T10:18:05;2.5;;;1.3;;
23252;SDS011;11795;47.054;15.408;2022-09-09T10:20:04;1.9;;;1.2;;
23252;SDS011;11795;47.054;15.408;2022-09-09T10:22:02;1.9;;;1.2;;
23252;SDS011;11795;47.054;15.408;2022-09-09T10:24:05;1.9;;;1.2;;
23252;SDS011;11795;47.054;15.408;2022-09-09T10:26:04;2.1;;;1.5;;
23252;SDS011;11795;47.054;15.408;2022-09-09T10:28:09;2.1;;;1.5;;
23252;SDS011;11795;47.054;15.408;2022-09-09T10:30:01;1.8;;;1.2;;
23252;SDS011;11795;47.054;15.408;2022-09-09T10:32:03;1.8;;;1.2;;
23252;SDS011;11795;47.054;15.408;2022-09-09T10:34:02;1.8;;;1.2;;
23252;SDS011;11795;47.054;15.408;2022-09-09T10:36:02;2.4;;;1.4;;
23252;SDS011;11795;47.054;15.408;2022-09-09T10:38:05;2.4;;;1.4;;
23252;SDS011;11795;47.054;15.408;2022-09-09T10:40:02;2.1;;;1.3;;
23252;SDS011;11795;47.054;15.408;2022-09-09T10:42:03;2.1;;;1.3;;
23252;SDS011;11795;47.054;15.408;2022-09-09T10:44:05;2.1;;;1.3;;
23252;SDS011;11795;47.054;15.408;2022-09-09T10:46:02;2.7;;;1.2;;
23252;SDS011;11795;47.054;15.408;2022-09-09T10:48:06;2.7;;;1.2;;
23252;SDS011;11795;47.054;15.408;2022-09-09T10:50:06;2.7;;;1.2;;
23252;SDS011;11795;47.054;15.408;2022-09-09T10:52:01;2.7;;;1.2;;
23252;SDS011;11795;47.054;15.408;2022-09-09T10:54:05;2.7;;;1.2;;
23252;SDS011;11795;47.054;15.408;2022-09-09T10:56:01;1.1;;;1.0;;
23252;SDS011;11795;47.054;15.408;2022-09-09T10:58:00;1.1;;;1.0;;
23252;SDS011;11795;47.054;15.408;2022-09-09T11:00:01;0.8;;;0.8;;
23252;SDS011;11795;47.054;15.408;2022-09-09T11:02:01;0.8;;;0.8;;
23252;SDS011;11795;47.054;15.408;2022-09-09T11:04:01;0.8;;;0.8;;
23252;SDS011;11795;47.054;15.408;2022-09-09T11:06:01;1.8;;;0.9;;
23252;SDS011;11795;47.054;15.408;2022-09-09T11:08:01;1.8;;;0.9;;
23252;SDS011;11795;47.054;15.408;2022-09-09T11:10:01;0.7;;;0.7;;
23252;SDS011;11795;47.054;15.408;2022-09-09T11:12:02;0.7;;;0.7;;
23252;SDS011;11795;47.054;15.408;2022-09-09T11:14:01;0.7;;;0.7;;
23252;SDS011;11795;47.054;15.408;2022-09-09T11:16:02;0.8;;;0.8;;
23252;SDS011;11795;47.054;15.408;2022-09-09T11:18:01;0.8;;;0.8;;
23252;SDS011;11795;47.054;15.408;2022-09-09T11:20:00;0.9;;;0.7;;
23252;SDS011;11795;47.054;15.408;2022-09-09T11:22:00;0.9;;;0.7;;
23252;SDS011;11795;47.054;15.408;2022-09-09T11:24:01;0.9;;;0.7;;
23252;SDS011;11795;47.054;15.408;2022-09-09T11:26:03;1.1;;;0.7;;
23252;SDS011;11795;47.054;15.408;2022-09-09T11:28:05;1.1;;;0.7;;
23252;SDS011;11795;47.054;15.408;2022-09-09T11:30:04;0.9;;;0.8;;
23252;SDS011;11795;47.054;15.408;2022-09-09T11:32:04;0.9;;;0.8;;
23252;SDS011;11795;47.054;15.408;2022-09-09T11:34:04;0.9;;;0.8;;
23252;SDS011;11795;47.054;15.408;2022-09-09T11:36:03;1.5;;;0.7;;
23252;SDS011;11795;47.054;15.408;2022-09-09T11:38:08;1.5;;;0.7;;
23252;SDS011;11795;47.054;15.408;2022-09-09T11:40:09;0.7;;;0.6;;
23252;SDS011;11795;47.054;15.408;2022-09-09T11:42:05;0.7;;;0.6;;
23252;SDS011;11795;47.054;15.408;2022-09-09T11:44:08;0.7;;;0.6;;
23252;SDS011;11795;47.054;15.408;2022-09-09T11:46:01;0.7;;;0.5;;
23252;SDS011;11795;47.054;15.408;2022-09-09T11:48:00;0.7;;;0.5;;
23252;SDS011;11795;47.054;15.408;2022-09-09T11:52:00;0.7;;;0.5;;
23252;SDS011;11795;47.054;15.408;2022-09-09T11:54:02;0.7;;;0.5;;
23252;SDS011;11795;47.054;15.408;2022-09-09T11:56:03;1.6;;;0.6;;
23252;SDS011;11795;47.054;15.408;2022-09-09T11:58:00;1.6;;;0.6;;
23252;SDS011;11795;47.054;15.408;2022-09-09T12:00:00;1.0;;;0.5;;
23252;SDS011;11795;47.054;15.408;2022-09-09T12:02:01;1.0;;;0.5;;
23252;SDS011;11795;47.054;15.408;2022-09-09T12:04:05;1.0;;;0.5;;
23252;SDS011;11795;47.054;15.408;2022-09-09T12:06:08;0.8;;;0.7;;
23252;SDS011;11795;47.054;15.408;2022-09-09T12:08:01;0.8;;;0.7;;
23252;SDS011;11795;47.054;15.408;2022-09-09T12:10:02;1.2;;;0.7;;
23252;SDS011;11795;47.054;15.408;2022-09-09T12:14:01;1.2;;;0.7;;
23252;SDS011;11795;47.054;15.408;2022-09-09T12:16:02;1.2;;;0.6;;
23252;SDS011;11795;47.054;15.408;2022-09-09T12:18:02;1.2;;;0.6;;
23252;SDS011;11795;47.054;15.408;2022-09-09T12:20:08;0.8;;;0.5;;
23252;SDS011;11795;47.054;15.408;2022-09-09T12:22:02;0.8;;;0.5;;
23252;SDS011;11795;47.054;15.408;2022-09-09T12:24:00;0.8;;;0.5;;
23252;SDS011;11795;47.054;15.408;2022-09-09T12:26:04;0.8;;;0.6;;
23252;SDS011;11795;47.054;15.408;2022-09-09T12:28:02;0.8;;;0.6;;
23252;SDS011;11795;47.054;15.408;2022-09-09T12:30:01;0.8;;;0.6;;
23252;SDS011;11795;47.054;15.408;2022-09-09T12:32:02;1.4;;;0.7;;
23252;SDS011;11795;47.054;15.408;2022-09-09T12:34:04;1.4;;;0.7;;
23252;SDS011;11795;47.054;15.408;2022-09-09T12:36:00;0.7;;;0.6;;
23252;SDS011;11795;47.054;15.408;2022-09-09T12:38:00;0.7;;;0.6;;
23252;SDS011;11795;47.054;15.408;2022-09-09T12:40:01;0.7;;;0.6;;
23252;SDS011;11795;47.054;15.408;2022-09-09T12:42:00;0.9;;;0.5;;
23252;SDS011;11795;47.054;15.408;2022-09-09T12:44:03;0.9;;;0.5;;
23252;SDS011;11795;47.054;15.408;2022-09-09T12:46:01;0.9;;;0.7;;
23252;SDS011;11795;47.054;15.408;2022-09-09T12:48:01;0.9;;;0.7;;
23252;SDS011;11795;47.054;15.408;2022-09-09T12:50:01;0.9;;;0.7;;
23252;SDS011;11795;47.054;15.408;2022-09-09T12:52:01;0.8;;;0.5;;
23252;SDS011;11795;47.054;15.408;2022-09-09T12:54:00;0.8;;;0.5;;
23252;SDS011;11795;47.054;15.408;2022-09-09T12:56:00;1.7;;;0.8;;
23252;SDS011;11795;47.054;15.408;2022-09-09T12:58:00;1.7;;;0.8;;
23252;SDS011;11795;47.054;15.408;2022-09-09T13:00:04;1.7;;;0.8;;
23252;SDS011;11795;47.054;15.408;2022-09-09T13:02:00;1.1;;;0.7;;
23252;SDS011;11795;47.054;15.408;2022-09-09T13:04:00;1.1;;;0.7;;
23252;SDS011;11795;47.054;15.408;2022-09-09T13:06:10;0.8;;;0.7;;
23252;SDS011;11795;47.054;15.408;2022-09-09T13:08:01;0.8;;;0.7;;
23252;SDS011;11795;47.054;15.408;2022-09-09T13:10:00;0.8;;;0.7;;
23252;SDS011;11795;47.054;15.408;2022-09-09T13:12:00;1.2;;;1.0;;
23252;SDS011;11795;47.054;15.408;2022-09-09T13:14:00;1.2;;;1.0;;
23252;SDS011;11795;47.054;15.408;2022-09-09T13:16:01;0.9;;;0.8;;
23252;SDS011;11795;47.054;15.408;2022-09-09T13:18:03;0.9;;;0.8;;
23252;SDS011;11795;47.054;15.408;2022-09-09T13:20:00;0.9;;;0.8;;
23252;SDS011;11795;47.054;15.408;2022-09-09T13:22:00;0.8;;;0.7;;
23252;SDS011;11795;47.054;15.408;2022-09-09T13:24:03;0.8;;;0.7;;
23252;SDS011;11795;47.054;15.408;2022-09-09T13:26:01;1.2;;;0.8;;
23252;SDS011;11795;47.054;15.408;2022-09-09T13:28:01;1.2;;;0.8;;
23252;SDS011;11795;47.054;15.408;2022-09-09T13:30:00;1.2;;;0.8;;
23252;SDS011;11795;47.054;15.408;2022-09-09T13:32:03;1.8;;;0.8;;